createdAt,value
2022-07-25T00:00:19.272Z,22.63999939
2022-07-25T00:01:16.604Z,22.63999939
2022-07-25T00:02:20.756Z,22.63999939
2022-07-25T00:03:18.570Z,22.64999962
2022-07-25T00:04:16.121Z,22.65999985
2022-07-25T00:05:11.231Z,22.65999985
2022-07-25T00:07:08.993Z,22.65999985
2022-07-25T00:08:07.461Z,22.65999985
2022-07-25T00:09:05.320Z,22.63999939
2022-07-25T00:10:03.208Z,22.62999916
2022-07-25T00:11:02.447Z,22.62999916
2022-07-25T00:12:05.873Z,22.61000061
2022-07-25T00:13:07.259Z,22.61000061
2022-07-25T00:14:01.560Z,22.60000038
2022-07-25T00:15:05.669Z,22.62999916
2022-07-25T00:16:10.189Z,22.64999962
2022-07-25T00:17:14.353Z,22.63999939
2022-07-25T00:18:06.920Z,22.62999916
2022-07-25T00:19:08.650Z,22.62000084
2022-07-25T00:21:04.430Z,22.62999916
2022-07-25T00:21:21.562Z,22.68000031
2022-07-25T00:22:21.495Z,22.79999924
2022-07-25T00:23:24.664Z,22.84000015
2022-07-25T00:24:20.886Z,22.82999992
2022-07-25T00:25:21.035Z,22.79999924
2022-07-25T00:27:16.848Z,22.72999954
2022-07-25T00:28:17.746Z,22.69000053
2022-07-25T00:29:17.100Z,22.65999985
2022-07-25T00:30:12.009Z,22.63999939
2022-07-25T00:31:21.303Z,22.63999939
2022-07-25T00:32:23.020Z,22.61000061
2022-07-25T00:33:19.684Z,22.60000038
2022-07-25T00:34:21.687Z,22.59000015
2022-07-25T00:35:17.592Z,22.57999992
2022-07-25T00:37:17.231Z,22.57999992
2022-07-25T00:38:17.467Z,22.57999992
2022-07-25T00:39:12.805Z,22.55999947
2022-07-25T00:40:14.696Z,22.55999947
2022-07-25T00:41:09.131Z,22.56999969
2022-07-25T00:42:10.920Z,22.56999969
2022-07-25T00:43:11.199Z,22.57999992
2022-07-25T00:44:13.360Z,22.59000015
2022-07-25T00:45:15.124Z,22.57999992
2022-07-25T00:47:12.208Z,22.54999924
2022-07-25T00:48:15.092Z,22.54000092
2022-07-25T00:49:08.389Z,22.53000069
2022-07-25T00:50:11.136Z,22.54999924
2022-07-25T00:52:56.552Z,22.73999977
2022-07-25T00:54:40.015Z,23.14999962
2022-07-25T00:55:19.731Z,23.22999954
2022-07-25T00:56:16.535Z,23.23999977
2022-07-25T00:57:17.800Z,23.20000076
2022-07-25T00:58:12.122Z,23.13999939
2022-07-25T00:59:12.343Z,23.07999992
2022-07-25T01:00:10.130Z,23.01000023
2022-07-25T01:01:09.259Z,22.96999931
2022-07-25T01:02:08.414Z,22.94000053
2022-07-25T01:03:02.039Z,22.89999962
2022-07-25T01:04:05.861Z,22.87000084
2022-07-25T01:05:00.299Z,22.82999992
2022-07-25T01:05:57.337Z,22.80999947
2022-07-25T01:06:55.356Z,22.79999924
2022-07-25T01:07:49.880Z,22.77000046
2022-07-25T01:08:55.381Z,22.75
2022-07-25T01:09:46.920Z,22.73999977
2022-07-25T01:10:44.853Z,22.75
2022-07-25T01:11:44.098Z,22.72999954
2022-07-25T01:12:44.524Z,22.71999931
2022-07-25T01:13:39.789Z,22.69000053
2022-07-25T01:15:41.185Z,22.75
2022-07-25T01:16:40.757Z,22.76000023
2022-07-25T01:17:34.997Z,22.75
2022-07-25T01:18:36.000Z,22.72999954
2022-07-25T01:19:32.553Z,22.70000076
2022-07-25T01:20:35.232Z,22.69000053
2022-07-25T01:21:30.534Z,22.69000053
2022-07-25T01:22:29.085Z,22.68000031
2022-07-25T01:23:22.756Z,22.67000008
2022-07-25T01:24:23.271Z,22.65999985
2022-07-25T01:25:24.060Z,22.65999985
2022-07-25T01:28:04.054Z,22.70000076
2022-07-25T01:28:42.687Z,22.78000069
2022-07-25T01:29:44.522Z,22.81999969
2022-07-25T01:31:41.361Z,22.79999924
2022-07-25T01:32:42.060Z,22.78000069
2022-07-25T01:33:39.424Z,22.73999977
2022-07-25T01:34:43.098Z,22.69000053
2022-07-25T01:35:43.410Z,22.68000031
2022-07-25T01:36:45.145Z,22.64999962
2022-07-25T01:37:40.165Z,22.64999962
2022-07-25T01:37:45.965Z,22.64999962
2022-07-25T01:38:39.359Z,22.63999939
2022-07-25T01:39:41.334Z,22.63999939
2022-07-25T01:41:37.848Z,22.60000038
2022-07-25T01:42:41.890Z,22.56999969
2022-07-25T01:43:34.376Z,22.54999924
2022-07-25T01:44:38.887Z,22.54999924
2022-07-25T01:46:36.236Z,22.56999969
2022-07-25T01:47:31.640Z,22.54999924
2022-07-25T01:48:31.276Z,22.52000046
2022-07-25T01:49:31.766Z,22.48999977
2022-07-25T01:51:28.495Z,22.45999908
2022-07-25T01:52:29.653Z,22.42000008
2022-07-25T01:53:25.953Z,22.39999962
2022-07-25T01:54:26.885Z,22.38999939
2022-07-25T01:55:21.150Z,22.37999916
2022-07-25T01:56:24.578Z,22.35000038
2022-07-25T01:57:22.906Z,22.34000015
2022-07-25T01:58:28.016Z,22.34000015
2022-07-25T01:59:30.944Z,22.30999947
2022-07-25T02:00:22.745Z,22.29999924
2022-07-25T02:02:18.712Z,22.29000092
2022-07-25T02:03:17.825Z,22.28000069
2022-07-25T02:04:13.185Z,22.25
2022-07-25T02:05:16.011Z,22.23999977
2022-07-25T02:06:15.425Z,22.25
2022-07-25T02:07:17.194Z,22.21999931
2022-07-25T02:08:11.514Z,22.20999908
2022-07-25T02:09:22.620Z,22.20000076
2022-07-25T02:10:22.800Z,22.20999908
2022-07-25T02:11:24.358Z,22.21999931
2022-07-25T02:12:19.438Z,22.20999908
2022-07-25T02:13:18.105Z,22.20000076
2022-07-25T02:14:17.650Z,22.19000053
2022-07-25T02:15:13.620Z,22.18000031
2022-07-25T02:18:03.709Z,22.31999969
2022-07-25T02:19:06.274Z,22.32999992
2022-07-25T02:20:00.900Z,22.32999992
2022-07-25T02:22:02.040Z,22.27000046
2022-07-25T02:23:05.337Z,22.25
2022-07-25T02:25:49.945Z,22.47999954
2022-07-25T02:26:48.101Z,22.57999992
2022-07-25T02:27:48.415Z,22.59000015
2022-07-25T02:28:42.956Z,22.55999947
2022-07-25T02:29:45.949Z,22.52000046
2022-07-25T02:31:44.767Z,22.44000053
2022-07-25T02:32:51.425Z,22.39999962
2022-07-25T02:33:52.612Z,22.36000061
2022-07-25T02:34:49.853Z,22.31999969
2022-07-25T02:36:47.565Z,22.29999924
2022-07-25T02:37:48.268Z,22.27000046
2022-07-25T02:38:46.567Z,22.25
2022-07-25T02:39:48.802Z,22.23999977
2022-07-25T02:40:41.324Z,22.23999977
2022-07-25T02:41:45.510Z,22.23999977
2022-07-25T02:42:37.566Z,22.23999977
2022-07-25T02:43:37.260Z,22.21999931
2022-07-25T02:44:31.708Z,22.21999931
2022-07-25T02:45:34.455Z,22.21999931
2022-07-25T02:46:28.357Z,22.22999954
2022-07-25T02:47:29.544Z,22.20999908
2022-07-25T02:48:27.215Z,22.20000076
2022-07-25T02:49:28.365Z,22.20000076
2022-07-25T02:50:25.546Z,22.18000031
2022-07-25T02:52:19.099Z,22.19000053
2022-07-25T02:53:24.662Z,22.20000076
2022-07-25T02:53:34.180Z,22.20000076
2022-07-25T02:53:47.174Z,22.20000076
2022-07-25T02:54:16.089Z,22.20999908
2022-07-25T02:55:10.103Z,22.25
2022-07-25T02:57:04.883Z,22.26000023
2022-07-25T02:58:06.783Z,22.23999977
2022-07-25T02:58:58.454Z,22.23999977
2022-07-25T03:00:00.737Z,22.21999931
2022-07-25T03:01:02.970Z,22.21999931
2022-07-25T03:01:59.419Z,22.21999931
2022-07-25T03:03:02.935Z,22.20000076
2022-07-25T03:03:55.696Z,22.19000053
2022-07-25T03:05:00.308Z,22.19000053
2022-07-25T03:08:23.494Z,22.40999985
2022-07-25T03:09:04.248Z,22.48999977
2022-07-25T03:10:02.346Z,22.5
2022-07-25T03:10:08.633Z,22.5
2022-07-25T03:10:59.325Z,22.5
2022-07-25T03:11:58.616Z,22.47999954
2022-07-25T03:13:01.644Z,22.44000053
2022-07-25T03:14:00.632Z,22.38999939
2022-07-25T03:15:02.944Z,22.32999992
2022-07-25T03:17:14.293Z,22.25
2022-07-25T03:18:11.410Z,22.21999931
2022-07-25T03:19:11.113Z,22.18000031
2022-07-25T03:20:10.376Z,22.18000031
2022-07-25T03:22:05.912Z,22.14999962
2022-07-25T03:23:03.806Z,22.12999916
2022-07-25T03:24:12.779Z,22.10000038
2022-07-25T03:25:05.868Z,22.07999992
2022-07-25T03:25:15.983Z,22.07999992
2022-07-25T03:25:21.413Z,22.07999992
2022-07-25T03:26:05.850Z,22.12999916
2022-07-25T03:27:02.678Z,22.15999985
2022-07-25T03:28:01.705Z,22.14999962
2022-07-25T03:28:55.935Z,22.13999939
2022-07-25T03:29:55.917Z,22.12000084
2022-07-25T03:30:56.354Z,22.12000084
2022-07-25T03:31:57.450Z,22.07999992
2022-07-25T03:32:57.362Z,22.04999924
2022-07-25T03:33:52.892Z,22.02000046
2022-07-25T03:34:54.470Z,22
2022-07-25T03:35:57.619Z,22
2022-07-25T03:37:04.684Z,21.97999954
2022-07-25T03:37:57.323Z,21.95999908
2022-07-25T03:38:55.244Z,21.95000076
2022-07-25T03:39:54.693Z,21.94000053
2022-07-25T03:41:22.637Z,21.94000053
2022-07-25T03:42:05.964Z,21.94000053
2022-07-25T03:43:08.124Z,21.93000031
2022-07-25T03:44:11.530Z,21.93000031
2022-07-25T03:45:08.026Z,21.92000008
2022-07-25T03:47:11.559Z,21.88999939
2022-07-25T03:47:20.825Z,21.88999939
2022-07-25T03:48:11.571Z,21.87999916
2022-07-25T03:49:09.404Z,21.92000008
2022-07-25T03:50:13.901Z,21.90999985
2022-07-25T03:51:13.521Z,21.92000008
2022-07-25T03:52:12.701Z,21.87000084
2022-07-25T03:53:15.330Z,21.85000038
2022-07-25T03:54:18.226Z,21.84000015
2022-07-25T03:55:18.207Z,21.80999947
2022-07-25T03:56:15.685Z,21.80999947
2022-07-25T03:57:13.153Z,21.79000092
2022-07-25T03:58:14.024Z,21.77000046
2022-07-25T03:59:16.115Z,21.76000023
2022-07-25T04:00:19.093Z,21.77000046
2022-07-25T04:01:19.257Z,21.80999947
2022-07-25T04:02:20.773Z,21.80999947
2022-07-25T04:03:24.476Z,21.80999947
2022-07-25T04:04:20.865Z,21.82999992
2022-07-25T04:05:20.922Z,21.82999992
2022-07-25T04:07:21.366Z,21.79999924
2022-07-25T04:08:17.619Z,21.79000092
2022-07-25T04:09:18.936Z,21.77000046
2022-07-25T04:10:17.505Z,21.75
2022-07-25T04:12:13.673Z,21.76000023
2022-07-25T04:13:17.035Z,21.72999954
2022-07-25T04:14:17.659Z,21.72999954
2022-07-25T04:15:11.319Z,21.73999977
2022-07-25T04:16:18.515Z,21.76000023
2022-07-25T04:16:22.688Z,21.76000023
2022-07-25T04:17:11.758Z,21.77000046
2022-07-25T04:18:07.651Z,21.80999947
2022-07-25T04:19:10.918Z,21.81999969
2022-07-25T04:20:05.696Z,21.81999969
2022-07-25T04:22:12.096Z,21.82999992
2022-07-25T04:23:14.387Z,21.82999992
2022-07-25T04:24:14.865Z,21.79999924
2022-07-25T04:25:15.944Z,21.79999924
2022-07-25T04:26:18.951Z,21.79999924
2022-07-25T04:27:19.047Z,21.77000046
2022-07-25T04:28:14.946Z,21.77000046
2022-07-25T04:30:03.577Z,21.81999969
2022-07-25T04:30:43.526Z,21.87000084
2022-07-25T04:31:42.757Z,21.94000053
2022-07-25T04:32:41.343Z,21.94000053
2022-07-25T04:33:44.323Z,21.94000053
2022-07-25T04:34:42.727Z,21.92000008
2022-07-25T04:35:42.284Z,21.90999985
2022-07-25T04:36:47.559Z,21.89999962
2022-07-25T04:37:45.265Z,21.86000061
2022-07-25T04:38:49.607Z,21.86000061
2022-07-25T04:39:45.019Z,21.86000061
2022-07-25T04:41:50.295Z,21.87999916
2022-07-25T04:42:44.494Z,21.87999916
2022-07-25T04:43:48.743Z,21.89999962
2022-07-25T04:44:46.453Z,21.90999985
2022-07-25T04:46:50.769Z,21.94000053
2022-07-25T04:47:51.304Z,21.94000053
2022-07-25T04:48:51.234Z,21.93000031
2022-07-25T04:49:58.085Z,21.93000031
2022-07-25T04:50:52.452Z,21.95999908
2022-07-25T04:51:57.496Z,21.95999908
2022-07-25T04:52:54.218Z,21.97999954
2022-07-25T04:53:50.612Z,21.98999977
2022-07-25T04:54:53.190Z,22.02000046
2022-07-25T04:56:54.850Z,22.09000015
2022-07-25T04:57:48.834Z,22.11000061
2022-07-25T04:58:53.247Z,22.11000061
2022-07-25T04:59:47.485Z,22.11000061
2022-07-25T05:01:48.243Z,22.13999939
2022-07-25T05:02:50.120Z,22.14999962
2022-07-25T05:03:50.327Z,22.14999962
2022-07-25T05:04:47.628Z,22.15999985
2022-07-25T05:05:49.283Z,22.18000031
2022-07-25T05:06:47.034Z,22.21999931
2022-07-25T05:08:00.386Z,22.21999931
2022-07-25T05:09:01.215Z,22.21999931
2022-07-25T05:11:11.961Z,22.20999908
2022-07-25T05:11:17.739Z,22.29000092
2022-07-25T05:12:17.385Z,22.48999977
2022-07-25T05:13:21.305Z,22.55999947
2022-07-25T05:14:18.512Z,22.56999969
2022-07-25T05:15:19.797Z,22.55999947
2022-07-25T05:16:15.579Z,22.53000069
2022-07-25T05:17:13.932Z,22.51000023
2022-07-25T05:18:15.400Z,22.48999977
2022-07-25T05:19:13.533Z,22.46999931
2022-07-25T05:19:51.417Z,22.45999908
2022-07-25T05:20:50.533Z,22.46999931
2022-07-25T05:22:52.632Z,22.47999954
2022-07-25T05:23:47.050Z,22.46999931
2022-07-25T05:24:43.828Z,22.47999954
2022-07-25T05:25:46.819Z,22.47999954
2022-07-25T05:26:44.099Z,22.47999954
2022-07-25T05:27:46.589Z,22.47999954
2022-07-25T05:28:40.562Z,22.47999954
2022-07-25T05:29:40.673Z,22.5
2022-07-25T05:30:40.092Z,22.5
2022-07-25T05:32:35.130Z,22.54999924
2022-07-25T05:33:37.622Z,22.55999947
2022-07-25T05:34:33.356Z,22.55999947
2022-07-25T05:35:36.206Z,22.57999992
2022-07-25T05:37:32.019Z,22.61000061
2022-07-25T05:38:25.546Z,22.61000061
2022-07-25T05:39:28.752Z,22.63999939
2022-07-25T05:40:23.330Z,22.63999939
2022-07-25T05:42:21.175Z,22.67000008
2022-07-25T05:43:24.164Z,22.69000053
2022-07-25T05:44:18.528Z,22.70000076
2022-07-25T05:46:15.497Z,22.72999954
2022-07-25T05:48:00.265Z,22.82999992
2022-07-25T05:48:39.375Z,22.89999962
2022-07-25T05:49:36.367Z,22.95000076
2022-07-25T05:50:36.399Z,22.94000053
2022-07-25T05:51:34.290Z,22.95000076
2022-07-25T05:52:29.647Z,22.95000076
2022-07-25T05:53:29.280Z,22.95000076
2022-07-25T05:54:24.538Z,22.94000053
2022-07-25T05:55:25.466Z,22.95000076
2022-07-25T05:57:19.925Z,22.95999908
2022-07-25T05:58:14.576Z,22.96999931
2022-07-25T05:59:14.089Z,22.97999954
2022-07-25T06:00:09.438Z,22.98999977
2022-07-25T06:02:04.701Z,23.05999947
2022-07-25T06:03:04.453Z,23.10000038
2022-07-25T06:03:59.410Z,23.12000084
2022-07-25T06:05:00.487Z,23.12000084
2022-07-25T06:05:55.752Z,23.12000084
2022-07-25T06:06:59.032Z,23.12999916
2022-07-25T06:07:51.616Z,23.13999939
2022-07-25T06:08:51.336Z,23.17000008
2022-07-25T06:09:46.277Z,23.18000031
2022-07-25T06:10:46.261Z,23.18000031
2022-07-25T06:12:41.688Z,23.20000076
2022-07-25T06:13:36.363Z,23.19000053
2022-07-25T06:14:40.222Z,23.20000076
2022-07-25T06:15:39.591Z,23.20000076
2022-07-25T06:16:35.274Z,23.20000076
2022-07-25T06:17:37.545Z,23.19000053
2022-07-25T06:18:32.704Z,23.20000076
2022-07-25T06:19:34.926Z,23.21999931
2022-07-25T06:20:28.009Z,23.23999977
2022-07-25T06:22:28.874Z,23.39999962
2022-07-25T06:23:27.786Z,23.44000053
2022-07-25T06:25:16.945Z,23.47999954
2022-07-25T06:25:37.863Z,23.53000069
2022-07-25T06:26:40.588Z,23.62000084
2022-07-25T06:27:38.291Z,23.65999985
2022-07-25T06:28:33.522Z,23.63999939
2022-07-25T06:29:32.773Z,23.62000084
2022-07-25T06:30:29.326Z,23.59000015
2022-07-25T06:31:29.187Z,23.56999969
2022-07-25T06:32:25.173Z,23.53000069
2022-07-25T06:33:25.889Z,23.52000046
2022-07-25T06:34:21.133Z,23.51000023
2022-07-25T06:35:20.634Z,23.47999954
2022-07-25T06:36:17.660Z,23.46999931
2022-07-25T06:37:23.493Z,23.45000076
2022-07-25T06:38:16.986Z,23.46999931
2022-07-25T06:39:24.503Z,23.46999931
2022-07-25T06:40:18.551Z,23.46999931
2022-07-25T06:42:17.047Z,23.53000069
2022-07-25T06:43:12.377Z,23.54000092
2022-07-25T06:44:11.743Z,23.53000069
2022-07-25T06:45:09.173Z,23.53000069
2022-07-25T06:47:04.590Z,23.54999924
2022-07-25T06:48:08.166Z,23.54000092
2022-07-25T06:49:03.521Z,23.54999924
2022-07-25T06:50:05.722Z,23.54999924
2022-07-25T06:50:58.132Z,23.56999969
2022-07-25T06:52:56.304Z,23.60000038
2022-07-25T06:53:51.691Z,23.60000038
2022-07-25T06:54:53.608Z,23.61000061
2022-07-25T06:55:46.389Z,23.63999939
2022-07-25T06:56:44.319Z,23.65999985
2022-07-25T06:57:43.712Z,23.68000031
2022-07-25T06:58:38.827Z,23.68000031
2022-07-25T06:59:37.110Z,23.69000053
2022-07-25T07:00:38.336Z,23.71999931
2022-07-25T07:02:30.401Z,23.75
2022-07-25T07:04:17.001Z,23.82999992
2022-07-25T07:04:58.154Z,23.87999916
2022-07-25T07:05:58.237Z,23.92000008
2022-07-25T07:06:59.670Z,23.95000076
2022-07-25T07:07:56.918Z,23.95999908
2022-07-25T07:08:58.010Z,23.96999931
2022-07-25T07:09:57.611Z,23.98999977
2022-07-25T07:11:02.071Z,23.97999954
2022-07-25T07:13:01.016Z,24.04999924
2022-07-25T07:13:59.197Z,24.06999969
2022-07-25T07:14:55.852Z,24.12000084
2022-07-25T07:16:03.201Z,24.13999939
2022-07-25T07:17:59.429Z,24.20999908
2022-07-25T07:18:56.275Z,24.25
2022-07-25T07:19:55.943Z,24.27000046
2022-07-25T07:20:57.483Z,24.28000069
2022-07-25T07:22:59.411Z,24.32999992
2022-07-25T07:23:57.767Z,24.36000061
2022-07-25T07:25:00.965Z,24.39999962
2022-07-25T07:25:58.442Z,24.40999985
2022-07-25T07:27:57.814Z,24.48999977
2022-07-25T07:28:59.287Z,24.53000069
2022-07-25T07:30:02.032Z,24.55999947
2022-07-25T07:31:15.641Z,24.57999992
2022-07-25T07:31:16.152Z,24.57999992
2022-07-25T07:31:17.870Z,24.57999992
2022-07-25T07:32:57.819Z,24.73999977
2022-07-25T07:34:02.421Z,24.78000069
2022-07-25T07:34:57.042Z,24.79999924
2022-07-25T07:36:02.231Z,24.79999924
2022-07-25T07:36:57.467Z,24.81999969
2022-07-25T07:38:01.876Z,24.85000038
2022-07-25T07:38:57.272Z,24.88999939
2022-07-25T07:40:01.849Z,24.92000008
2022-07-25T07:41:25.667Z,24.95000076
2022-07-25T07:42:06.142Z,25.03000069
2022-07-25T07:43:04.342Z,25.09000015
2022-07-25T07:44:04.429Z,25.12999916
2022-07-25T07:44:59.775Z,25.15999985
2022-07-25T07:46:00.967Z,25.13999939
2022-07-25T07:47:56.180Z,25.18000031
2022-07-25T07:48:51.740Z,25.20999908
2022-07-25T07:49:54.647Z,25.22999954
2022-07-25T07:50:48.952Z,25.25
2022-07-25T07:51:48.528Z,25.29000092
2022-07-25T07:52:44.762Z,25.31999969
2022-07-25T07:53:44.679Z,25.36000061
2022-07-25T07:54:40.370Z,25.38999939
2022-07-25T07:55:40.788Z,25.43000031
2022-07-25T07:57:35.482Z,25.5
2022-07-25T07:58:38.578Z,25.54999924
2022-07-25T07:59:32.024Z,25.57999992
2022-07-25T08:00:35.545Z,25.61000061
2022-07-25T08:01:29.840Z,25.62999916
2022-07-25T08:02:30.163Z,25.67000008
2022-07-25T08:03:25.728Z,25.68000031
2022-07-25T08:04:26.264Z,25.70999908
2022-07-25T08:05:21.671Z,25.71999931
2022-07-25T08:07:18.900Z,25.70999908
2022-07-25T08:08:16.670Z,25.70999908
2022-07-25T08:09:16.595Z,25.70999908
2022-07-25T08:10:12.048Z,25.70000076
2022-07-25T08:12:09.891Z,25.68000031
2022-07-25T08:13:09.104Z,25.67000008
2022-07-25T08:14:45.970Z,25.72999954
2022-07-25T08:15:26.763Z,25.79999924
2022-07-25T08:16:24.282Z,25.81999969
2022-07-25T08:17:26.478Z,25.82999992
2022-07-25T08:17:28.677Z,25.82999992
2022-07-25T08:18:21.729Z,25.85000038
2022-07-25T08:19:17.795Z,25.87000084
2022-07-25T08:20:37.037Z,25.87999916
2022-07-25T08:20:37.591Z,25.87999916
2022-07-25T08:20:38.033Z,25.87999916
2022-07-25T08:21:16.243Z,25.87000084
2022-07-25T08:22:11.571Z,25.92000008
2022-07-25T08:23:11.590Z,25.94000053
2022-07-25T08:24:07.332Z,25.95000076
2022-07-25T08:25:03.929Z,25.93000031
2022-07-25T08:26:04.344Z,25.89999962
2022-07-25T08:27:57.340Z,25.87999916
2022-07-25T08:29:17.739Z,25.87000084
2022-07-25T08:29:18.011Z,25.87000084
2022-07-25T08:29:21.990Z,25.87000084
2022-07-25T08:29:55.404Z,25.89999962
2022-07-25T08:30:50.780Z,25.94000053
2022-07-25T08:31:50.858Z,25.95999908
2022-07-25T08:32:46.260Z,25.96999931
2022-07-25T08:33:48.508Z,25.96999931
2022-07-25T08:34:41.611Z,25.96999931
2022-07-25T08:35:41.643Z,25.97999954
2022-07-25T08:37:34.617Z,26
2022-07-25T08:38:36.752Z,25.97999954
2022-07-25T08:39:30.733Z,25.97999954
2022-07-25T08:40:33.244Z,25.97999954
2022-07-25T08:42:28.415Z,26
2022-07-25T08:43:21.181Z,26.01000023
2022-07-25T08:44:23.804Z,26.04000092
2022-07-25T08:45:18.115Z,26.04999924
2022-07-25T08:46:20.473Z,26.04000092
2022-07-25T08:47:13.180Z,26.04999924
2022-07-25T08:48:16.287Z,26.05999947
2022-07-25T08:49:09.925Z,26.05999947
2022-07-25T08:50:13.761Z,26.04999924
2022-07-25T08:51:06.998Z,26.04000092
2022-07-25T08:53:31.485Z,26.04000092
2022-07-25T08:53:32.096Z,26.04000092
2022-07-25T08:53:34.370Z,26.04000092
2022-07-25T08:54:57.183Z,26.09000015
2022-07-25T08:55:53.520Z,26.12000084
2022-07-25T08:57:48.211Z,26.10000038
2022-07-25T09:00:03.067Z,26.12000084
2022-07-25T09:00:23.135Z,26.17000008
2022-07-25T09:02:18.400Z,26.22999954
2022-07-25T09:03:16.733Z,26.20000076
2022-07-25T09:04:15.478Z,26.15999985
2022-07-25T09:05:10.689Z,26.12000084
2022-07-25T09:06:09.154Z,26.06999969
2022-07-25T09:08:02.919Z,26.01000023
2022-07-25T09:09:03.434Z,26.01000023
2022-07-25T09:09:58.538Z,26
2022-07-25T09:10:56.903Z,25.97999954
2022-07-25T09:12:53.847Z,25.97999954
2022-07-25T09:13:52.068Z,26
2022-07-25T09:14:47.514Z,26.01000023
2022-07-25T09:15:50.138Z,26.03000069
2022-07-25T09:16:42.828Z,26.03000069
2022-07-25T09:17:42.866Z,26.05999947
2022-07-25T09:18:38.032Z,26.07999992
2022-07-25T09:19:37.821Z,26.10000038
2022-07-25T09:20:37.012Z,26.11000061
2022-07-25T09:21:32.212Z,26.10000038
2022-07-25T09:22:31.391Z,26.12999916
2022-07-25T09:23:31.798Z,26.14999962
2022-07-25T09:24:26.918Z,26.14999962
2022-07-25T09:26:06.245Z,26.19000053
2022-07-25T09:27:01.538Z,26.27000046
2022-07-25T09:27:59.622Z,26.32999992
2022-07-25T09:28:54.990Z,26.36000061
2022-07-25T09:30:32.831Z,26.54000092
2022-07-25T09:33:08.483Z,26.88999939
2022-07-25T09:33:28.616Z,26.96999931
2022-07-25T09:34:29.092Z,27.03000069
2022-07-25T09:35:24.708Z,27.05999947
2022-07-25T09:36:24.858Z,26.97999954
2022-07-25T09:37:20.504Z,26.95000076
2022-07-25T09:38:20.486Z,26.92000008
2022-07-25T09:39:16.125Z,26.88999939
2022-07-25T09:40:18.640Z,26.87000084
2022-07-25T09:41:11.255Z,26.81999969
2022-07-25T09:43:07.177Z,26.80999947
2022-07-25T09:44:06.153Z,26.80999947
2022-07-25T09:45:00.839Z,26.79999924
2022-07-25T09:46:00.852Z,26.80999947
2022-07-25T09:47:56.269Z,26.79999924
2022-07-25T09:48:51.594Z,26.79999924
2022-07-25T09:49:51.835Z,26.79999924
2022-07-25T09:50:48.083Z,26.81999969
2022-07-25T09:52:44.830Z,26.81999969
2022-07-25T09:53:39.650Z,26.82999992
2022-07-25T09:54:42.252Z,26.82999992
2022-07-25T09:55:34.807Z,26.84000015
2022-07-25T09:57:29.841Z,26.82999992
2022-07-25T09:58:29.742Z,26.87000084
2022-07-25T09:59:25.012Z,26.87999916
2022-07-25T10:00:24.489Z,26.89999962
2022-07-25T10:01:19.459Z,26.87999916
2022-07-25T10:03:14.704Z,26.90999985
2022-07-25T10:04:18.265Z,26.93000031
2022-07-25T10:05:11.027Z,26.95000076
2022-07-25T10:06:13.172Z,26.94000053
2022-07-25T10:08:09.286Z,26.96999931
2022-07-25T10:09:01.613Z,26.96999931
2022-07-25T10:10:03.909Z,26.96999931
2022-07-25T10:11:40.839Z,26.98999977
2022-07-25T10:12:20.659Z,27.04000092
2022-07-25T10:13:19.889Z,27.06999969
2022-07-25T10:14:20.669Z,27.04999924
2022-07-25T10:15:19.704Z,27
2022-07-25T10:16:18.046Z,26.95999908
2022-07-25T10:17:13.531Z,26.92000008
2022-07-25T10:18:12.736Z,26.89999962
2022-07-25T10:19:08.016Z,26.87000084
2022-07-25T10:20:06.812Z,26.81999969
2022-07-25T10:21:17.814Z,26.78000069
2022-07-25T10:21:24.455Z,26.78000069
2022-07-25T10:21:25.494Z,26.78000069
2022-07-25T10:22:07.780Z,26.77000046
2022-07-25T10:23:03.120Z,26.77000046
2022-07-25T10:24:02.922Z,26.73999977
2022-07-25T10:24:58.238Z,26.70999908
2022-07-25T10:25:54.355Z,26.67000008
2022-07-25T10:26:53.425Z,26.62000084
2022-07-25T10:27:49.372Z,26.59000015
2022-07-25T10:28:48.802Z,26.54000092
2022-07-25T10:29:43.984Z,26.5
2022-07-25T10:30:43.279Z,26.47999954
2022-07-25T10:31:37.736Z,26.45000076
2022-07-25T10:32:36.879Z,26.43000031
2022-07-25T10:33:31.893Z,26.39999962
2022-07-25T10:34:34.655Z,26.37000084
2022-07-25T10:35:34.687Z,26.34000015
2022-07-25T10:37:30.370Z,26.32999992
2022-07-25T10:38:22.831Z,26.30999947
2022-07-25T10:39:26.203Z,26.29000092
2022-07-25T10:40:19.153Z,26.29000092
2022-07-25T10:41:18.939Z,26.26000023
2022-07-25T10:43:14.848Z,26.20000076
2022-07-25T10:44:09.597Z,26.18000031
2022-07-25T10:45:45.863Z,26.21999931
2022-07-25T10:46:38.416Z,26.29000092
2022-07-25T10:47:35.242Z,26.31999969
2022-07-25T10:48:33.449Z,26.30999947
2022-07-25T10:50:25.165Z,26.32999992
2022-07-25T10:50:29.309Z,26.32999992
2022-07-25T10:50:40.274Z,26.32999992
2022-07-25T10:50:55.527Z,26.32999992
2022-07-25T10:50:55.876Z,26.32999992
2022-07-25T10:50:57.015Z,26.32999992
2022-07-25T10:51:44.691Z,26.40999985
2022-07-25T10:52:45.465Z,26.45999908
2022-07-25T10:53:40.475Z,26.45999908
2022-07-25T10:54:40.389Z,26.44000053
2022-07-25T10:55:36.063Z,26.42000008
2022-07-25T10:57:32.464Z,26.35000038
2022-07-25T10:58:29.893Z,26.34000015
2022-07-25T10:59:27.291Z,26.30999947
2022-07-25T11:00:26.955Z,26.29999924
2022-07-25T11:01:22.253Z,26.28000069
2022-07-25T11:02:21.982Z,26.28000069
2022-07-25T11:03:18.554Z,26.28000069
2022-07-25T11:04:17.297Z,26.28000069
2022-07-25T11:05:19.644Z,26.28000069
2022-07-25T11:06:12.827Z,26.26000023
2022-07-25T11:07:12.996Z,26.26000023
2022-07-25T11:08:21.637Z,26.27000046
2022-07-25T11:08:22.589Z,26.27000046
2022-07-25T11:08:23.641Z,26.27000046
2022-07-25T11:09:09.155Z,26.29999924
2022-07-25T11:10:04.230Z,26.36000061
2022-07-25T11:11:04.447Z,26.37999916
2022-07-25T11:12:59.395Z,26.36000061
2022-07-25T11:13:54.670Z,26.37000084
2022-07-25T11:14:54.771Z,26.36000061
2022-07-25T11:15:50.076Z,26.36000061
2022-07-25T11:16:52.508Z,26.34000015
2022-07-25T11:17:47.000Z,26.36000061
2022-07-25T11:18:45.269Z,26.37000084
2022-07-25T11:19:42.427Z,26.36000061
2022-07-25T11:20:40.397Z,26.36000061
2022-07-25T11:22:24.634Z,26.40999985
2022-07-25T11:23:04.861Z,26.46999931
2022-07-25T11:24:06.106Z,26.51000023
2022-07-25T11:25:01.406Z,26.52000046
2022-07-25T11:26:01.358Z,26.53000069
2022-07-25T11:27:58.731Z,26.5
2022-07-25T11:28:51.765Z,26.5
2022-07-25T11:29:52.291Z,26.5
2022-07-25T11:30:47.592Z,26.5
2022-07-25T11:31:46.864Z,26.47999954
2022-07-25T11:32:42.073Z,26.47999954
2022-07-25T11:33:41.604Z,26.48999977
2022-07-25T11:34:38.130Z,26.48999977
2022-07-25T11:35:37.918Z,26.5
2022-07-25T11:36:33.198Z,26.48999977
2022-07-25T11:37:32.407Z,26.5